Terminal Aerodrome Forecast
Issued by NWS Albuquerque, NM

Home | Current Version | Previous Version | Text Only | Print | Product List | Glossary On
Versions: 1 2 3 4 5 6 7 8 9 10 11 12 13 14 15
000
FTUS45 KABQ 252343
TAFABQ
TAF
KABQ 252343Z 2600/2624 12015KT P6SM VCSH SCT090 BKN140
      TEMPO 2600/2601 VRB20G30KT -SHRA BKN090
     FM260100 12010KT P6SM VCTS BKN080CB OVC120
      TEMPO 2601/2603 VRB20G30KT
     FM260300 10012KT P6SM VCSH SCT100 BKN140
     FM260500 VRB05KT P6SM SCT140
     FM262100 26010KT P6SM SCT090=

USA.gov is the U.S. government's official web portal to all federal, state and local government web resources and services.